Time;durP1;ratioP1;P1;durP2;ratioP2;P2;SDS_P1;SDS_P2;PMS_P1;PMS_P2;Temp;Humidity;BMP_temperature;BMP_pressure;BME280_temperature;BME280_humidity;BME280_pressure;Samples;Min_cycle;Max_cycle;Signal;HPM_P1;HPM_P2
2023/07/09 00:00:47;;;;;;;13.15;5.53;;;22.80;82.90;;;;;;5073486;28;20071;-69
2023/07/09 00:03:13;;;;;;;10.23;6.43;;;22.80;83.00;;;;;;5073516;28;20021;-69
2023/07/09 00:05:38;;;;;;;15.02;5.78;;;22.80;83.00;;;;;;5073402;28;20253;-69
2023/07/09 00:08:04;;;;;;;8.75;5.60;;;22.80;82.60;;;;;;5073473;28;20132;-68
2023/07/09 00:10:30;;;;;;;9.02;5.70;;;22.70;83.00;;;;;;5071928;28;20025;-69
2023/07/09 00:12:56;;;;;;;14.25;5.50;;;22.60;82.90;;;;;;5072154;28;20287;-69
2023/07/09 00:15:22;;;;;;;8.63;5.78;;;22.60;83.10;;;;;;5073050;28;20036;-69
2023/07/09 00:17:47;;;;;;;8.65;5.60;;;22.60;82.90;;;;;;5072125;28;20029;-69
2023/07/09 00:20:18;;;;;;;7.88;5.07;;;22.60;82.80;;;;;;5072554;28;20097;-69
2023/07/09 00:22:51;;;;;;;8.73;5.43;;;22.50;83.30;;;;;;5073108;28;20123;-69
2023/07/09 00:25:20;;;;;;;7.72;5.28;;;22.40;83.90;;;;;;5072932;28;20475;-69
2023/07/09 00:27:48;;;;;;;9.23;5.55;;;22.40;83.20;;;;;;5072823;28;20482;-69
2023/07/09 00:30:21;;;;;;;10.73;5.65;;;22.40;84.20;;;;;;5073034;28;20025;-70
2023/07/09 00:32:51;;;;;;;9.20;6.22;;;22.40;84.00;;;;;;5072622;28;20059;-69
2023/07/09 00:35:18;;;;;;;11.77;5.05;;;22.40;83.80;;;;;;5072852;28;20405;-68
2023/07/09 00:37:44;;;;;;;11.77;5.75;;;22.40;83.40;;;;;;5073324;28;20297;-69
2023/07/09 00:40:20;;;;;;;9.25;6.00;;;22.40;84.20;;;;;;5073261;28;20025;-70
2023/07/09 00:42:48;;;;;;;14.38;6.25;;;22.30;84.10;;;;;;5072881;28;20024;-69
2023/07/09 00:45:23;;;;;;;13.13;5.38;;;22.40;83.30;;;;;;5072416;28;20418;-69
2023/07/09 00:48:00;;;;;;;10.77;5.20;;;22.30;84.20;;;;;;5072768;28;20039;-70
2023/07/09 00:50:46;;;;;;;9.70;5.40;;;22.30;84.30;;;;;;5072665;28;20062;-69
2023/07/09 00:53:18;;;;;;;11.40;5.93;;;22.10;84.10;;;;;;5072292;28;20055;-69
2023/07/09 00:55:51;;;;;;;11.90;5.38;;;22.10;84.60;;;;;;5072889;28;20033;-69
2023/07/09 00:58:18;;;;;;;8.20;5.18;;;22.00;84.60;;;;;;5072384;28;20094;-69
2023/07/09 01:00:53;;;;;;;8.30;5.33;;;22.00;85.40;;;;;;5072611;28;20028;-71
2023/07/09 01:03:36;;;;;;;8.48;5.18;;;21.90;85.90;;;;;;5072414;28;20063;-70
2023/07/09 01:06:04;;;;;;;11.63;4.97;;;21.90;86.20;;;;;;5072180;28;20033;-69
2023/07/09 01:08:31;;;;;;;;;;;21.90;86.00;;;;;;5072859;28;20071;-69
2023/07/09 01:11:01;;;;;;;7.95;5.13;;;21.90;86.30;;;;;;5072670;28;20207;-69
2023/07/09 01:13:28;;;;;;;8.25;5.30;;;21.90;86.70;;;;;;5071278;28;20071;-69
2023/07/09 01:15:56;;;;;;;12.15;5.05;;;21.80;86.90;;;;;;5072311;28;20044;-70
2023/07/09 01:18:22;;;;;;;8.02;5.13;;;21.90;86.60;;;;;;5072257;28;20028;-69
2023/07/09 01:20:48;;;;;;;8.88;5.70;;;21.80;86.80;;;;;;5072080;28;20032;-69
2023/07/09 01:23:14;;;;;;;8.38;5.07;;;21.80;87.30;;;;;;5072433;28;20021;-69
2023/07/09 01:25:46;;;;;;;8.25;5.45;;;21.80;87.70;;;;;;5070943;28;20024;-69
2023/07/09 01:28:12;;;;;;;8.75;5.97;;;21.70;87.70;;;;;;5071934;28;20498;-69
2023/07/09 01:30:40;;;;;;;7.18;4.95;;;21.60;87.90;;;;;;5070685;28;20044;-70
2023/07/09 01:33:06;;;;;;;;;;;21.60;87.60;;;;;;5072190;28;20120;-70
2023/07/09 01:35:35;;;;;;;9.73;5.43;;;21.70;87.50;;;;;;5064107;28;19966;-69
2023/07/09 01:38:02;;;;;;;8.32;4.80;;;21.70;88.40;;;;;;5031273;28;20041;-69
2023/07/09 01:40:28;;;;;;;8.05;4.80;;;21.60;88.20;;;;;;5049784;28;20227;-69
2023/07/09 01:42:57;;;;;;;9.10;5.30;;;21.60;88.10;;;;;;5051743;28;20521;-69
2023/07/09 01:45:23;;;;;;;6.72;4.85;;;21.50;88.60;;;;;;5052208;28;20021;-69
2023/07/09 01:47:48;;;;;;;8.40;5.47;;;21.50;88.80;;;;;;5051560;28;20528;-69
2023/07/09 01:50:16;;;;;;;7.43;5.22;;;21.50;89.20;;;;;;5052028;28;20426;-70
2023/07/09 01:52:43;;;;;;;8.27;5.40;;;21.30;90.20;;;;;;5051450;28;20056;-69
2023/07/09 01:55:10;;;;;;;7.82;5.60;;;21.30;90.00;;;;;;5051503;28;20063;-69
2023/07/09 01:57:36;;;;;;;10.30;5.13;;;21.30;90.10;;;;;;5051554;28;20080;-69
2023/07/09 02:00:10;;;;;;;10.88;5.43;;;21.30;90.30;;;;;;5050303;28;20056;-70
2023/07/09 02:02:38;;;;;;;9.45;5.60;;;21.30;90.20;;;;;;5051687;28;20033;-69
2023/07/09 02:05:05;;;;;;;10.50;5.32;;;21.30;90.20;;;;;;5050636;28;20085;-71
2023/07/09 02:07:31;;;;;;;12.05;5.97;;;21.30;90.30;;;;;;5049916;28;20120;-69
2023/07/09 02:09:58;;;;;;;8.60;5.25;;;21.30;90.40;;;;;;5051282;28;20546;-70
2023/07/09 02:12:23;;;;;;;8.15;5.38;;;21.20;90.70;;;;;;5051112;28;20021;-71
2023/07/09 02:14:49;;;;;;;8.23;5.22;;;21.20;90.50;;;;;;5050049;28;20425;-70
2023/07/09 02:17:15;;;;;;;8.82;4.80;;;21.20;90.80;;;;;;5051586;28;20040;-70
2023/07/09 02:19:41;;;;;;;11.20;5.65;;;21.10;90.60;;;;;;5051193;28;20040;-69
2023/07/09 02:22:07;;;;;;;10.73;4.63;;;21.00;90.50;;;;;;5051025;28;20056;-69
2023/07/09 02:24:33;;;;;;;7.40;4.82;;;21.10;90.40;;;;;;5050514;28;20056;-69
2023/07/09 02:27:00;;;;;;;9.63;5.25;;;21.00;90.60;;;;;;5049558;28;20200;-70
2023/07/09 02:29:28;;;;;;;7.70;5.07;;;21.00;90.40;;;;;;5050499;28;20028;-68
2023/07/09 02:31:56;;;;;;;12.98;5.55;;;21.00;90.60;;;;;;5051392;28;20029;-69
2023/07/09 02:34:25;;;;;;;13.38;5.97;;;21.00;90.80;;;;;;5050389;28;20053;-69
2023/07/09 02:36:55;;;;;;;8.52;5.30;;;21.00;90.80;;;;;;5050580;28;20028;-69
2023/07/09 02:39:21;;;;;;;7.32;4.68;;;21.00;91.00;;;;;;5082840;28;20044;-70
2023/07/09 02:41:47;;;;;;;10.88;5.32;;;20.90;91.10;;;;;;5050684;28;20060;-70
2023/07/09 02:44:13;;;;;;;10.32;5.40;;;20.90;91.10;;;;;;5051008;28;20649;-69
2023/07/09 02:46:39;;;;;;;11.93;5.57;;;20.90;91.20;;;;;;5050785;28;20029;-69
2023/07/09 02:49:06;;;;;;;8.63;5.05;;;20.80;91.40;;;;;;5050501;28;20063;-69
2023/07/09 02:51:33;;;;;;;8.82;5.25;;;20.70;91.40;;;;;;5050601;28;20066;-69
2023/07/09 02:54:00;;;;;;;8.32;5.32;;;20.70;91.60;;;;;;5050316;28;20025;-68
2023/07/09 02:56:26;;;;;;;10.55;5.72;;;20.60;91.50;;;;;;5050644;28;20450;-69
2023/07/09 02:58:52;;;;;;;8.93;4.95;;;20.60;91.70;;;;;;5050804;28;20108;-69
2023/07/09 03:01:21;;;;;;;7.57;4.72;;;20.60;91.80;;;;;;5050298;28;20120;-68
2023/07/09 03:03:47;;;;;;;8.93;5.40;;;20.60;91.70;;;;;;5049139;28;20044;-69
2023/07/09 03:06:12;;;;;;;9.30;4.88;;;20.60;91.50;;;;;;5050135;28;20332;-70
2023/07/09 03:08:38;;;;;;;7.70;4.75;;;20.60;91.80;;;;;;5050096;28;20102;-69
2023/07/09 03:11:12;;;;;;;7.55;5.07;;;20.60;91.80;;;;;;5050564;28;20427;-69
2023/07/09 03:13:38;;;;;;;6.95;4.78;;;20.60;92.00;;;;;;5049824;28;20469;-69
2023/07/09 03:16:04;;;;;;;9.15;4.97;;;20.50;92.20;;;;;;5050193;28;20114;-69
2023/07/09 03:18:30;;;;;;;8.00;5.18;;;20.50;92.00;;;;;;5049954;28;20305;-70
2023/07/09 03:20:56;;;;;;;9.30;5.30;;;20.40;92.10;;;;;;5050221;28;20052;-70
2023/07/09 03:23:22;;;;;;;8.93;5.28;;;20.40;92.10;;;;;;5050411;28;20067;-69
2023/07/09 03:25:47;;;;;;;8.90;4.93;;;20.50;92.20;;;;;;5049340;28;20021;-69
2023/07/09 03:28:15;;;;;;;10.32;5.22;;;20.40;92.40;;;;;;5048524;28;20379;-68
2023/07/09 03:30:46;;;;;;;9.50;5.05;;;20.40;92.50;;;;;;5049398;28;20068;-68
2023/07/09 03:33:13;;;;;;;8.90;5.07;;;20.40;92.40;;;;;;5049648;28;20320;-69
2023/07/09 03:35:39;;;;;;;15.18;5.32;;;20.40;92.40;;;;;;5048924;28;20068;-69
2023/07/09 03:38:06;;;;;;;8.75;4.80;;;20.40;92.50;;;;;;5050497;28;20029;-69
2023/07/09 03:40:32;;;;;;;6.25;4.75;;;20.40;92.50;;;;;;5049462;28;20630;-69
2023/07/09 03:42:57;;;;;;;13.02;5.25;;;20.40;92.60;;;;;;5050294;28;20117;-69
2023/07/09 03:45:23;;;;;;;6.78;4.63;;;20.30;92.80;;;;;;5048893;28;20479;-69
2023/07/09 03:47:49;;;;;;;10.68;5.45;;;20.30;93.00;;;;;;5049833;28;20459;-69
2023/07/09 03:50:15;;;;;;;9.90;5.15;;;20.30;93.20;;;;;;5049311;28;20036;-71
2023/07/09 03:52:41;;;;;;;11.23;5.57;;;20.20;93.30;;;;;;5048970;28;20489;-70
2023/07/09 03:55:07;;;;;;;10.15;5.30;;;20.30;93.30;;;;;;5049797;28;20087;-68
2023/07/09 03:57:33;;;;;;;6.18;4.45;;;20.30;93.30;;;;;;5049634;28;20029;-70
2023/07/09 03:59:59;;;;;;;8.73;4.95;;;20.40;93.00;;;;;;5049719;28;20036;-69
2023/07/09 04:02:25;;;;;;;6.88;4.45;;;20.40;93.10;;;;;;5049654;28;20024;-69
2023/07/09 04:04:50;;;;;;;7.75;4.60;;;20.50;93.00;;;;;;5050069;28;20037;-69
2023/07/09 04:07:16;;;;;;;7.97;4.45;;;20.40;93.20;;;;;;5049385;28;20367;-70
2023/07/09 04:09:42;;;;;;;8.70;5.07;;;20.40;93.30;;;;;;5049407;28;20029;-69
2023/07/09 04:12:09;;;;;;;7.30;5.32;;;20.40;93.30;;;;;;5049549;28;20025;-68
2023/07/09 04:14:35;;;;;;;9.57;5.20;;;20.40;93.30;;;;;;5049768;28;20025;-69
2023/07/09 04:17:02;;;;;;;10.65;5.38;;;20.40;93.80;;;;;;5049256;28;20470;-69
2023/07/09 04:19:28;;;;;;;7.80;5.03;;;20.50;93.40;;;;;;5049419;28;20041;-69
2023/07/09 04:21:53;;;;;;;9.55;5.10;;;20.40;93.00;;;;;;5049582;28;20120;-70
2023/07/09 04:24:20;;;;;;;9.02;4.93;;;20.50;93.10;;;;;;5049358;28;20108;-70
2023/07/09 04:26:47;;;;;;;6.57;4.57;;;20.50;93.10;;;;;;5048167;28;20037;-70
2023/07/09 04:29:13;;;;;;;7.93;4.40;;;20.50;92.70;;;;;;5052909;28;20029;-69
2023/07/09 04:31:40;;;;;;;9.02;4.70;;;20.60;93.20;;;;;;5052024;28;20029;-69
2023/07/09 04:34:07;;;;;;;8.25;5.07;;;20.60;93.30;;;;;;5052841;28;20498;-69
2023/07/09 04:36:32;;;;;;;8.93;5.07;;;20.60;93.40;;;;;;5053109;28;20106;-69
2023/07/09 04:38:58;;;;;;;14.32;5.47;;;20.60;93.30;;;;;;5053502;28;20463;-70
2023/07/09 04:41:24;;;;;;;7.13;4.72;;;20.60;93.30;;;;;;5053153;28;20063;-70
2023/07/09 04:43:50;;;;;;;7.20;4.95;;;20.60;93.50;;;;;;5052759;28;20063;-69
2023/07/09 04:46:16;;;;;;;7.03;4.70;;;20.70;93.20;;;;;;5052136;28;20086;-70
2023/07/09 04:48:42;;;;;;;9.55;4.70;;;20.80;93.10;;;;;;5052919;28;20635;-70
2023/07/09 04:51:08;;;;;;;7.88;4.80;;;20.80;93.00;;;;;;5052836;28;20064;-69
2023/07/09 04:53:34;;;;;;;6.13;4.60;;;20.90;93.00;;;;;;5052783;28;20096;-68
2023/07/09 04:55:59;;;;;;;12.15;5.63;;;20.80;93.50;;;;;;5053123;28;20109;-69
2023/07/09 04:58:25;;;;;;;10.10;4.97;;;20.80;93.30;;;;;;5051457;28;20029;-70
2023/07/09 05:00:51;;;;;;;7.95;4.63;;;20.90;93.10;;;;;;5052589;28;20048;-71
2023/07/09 05:03:18;;;;;;;7.40;4.72;;;20.90;93.40;;;;;;5052638;28;20044;-69
2023/07/09 05:05:45;;;;;;;6.57;4.47;;;20.90;93.70;;;;;;5052324;28;20108;-71
2023/07/09 05:08:14;;;;;;;6.07;4.63;;;20.90;93.70;;;;;;5053030;28;20033;-70
2023/07/09 05:10:49;;;;;;;13.13;4.90;;;21.00;93.10;;;;;;5052306;28;20064;-69
2023/07/09 05:13:16;;;;;;;9.93;5.05;;;21.10;93.30;;;;;;5052780;28;20029;-70
2023/07/09 05:15:46;;;;;;;7.93;4.55;;;21.10;92.60;;;;;;5052363;28;20066;-69
2023/07/09 05:18:16;;;;;;;8.93;4.55;;;21.10;91.90;;;;;;5052310;28;20037;-69
2023/07/09 05:20:41;;;;;;;9.07;4.60;;;21.10;91.70;;;;;;5051134;28;20060;-69
2023/07/09 05:23:10;;;;;;;9.63;4.65;;;21.20;92.10;;;;;;5052615;28;20052;-70
2023/07/09 05:25:36;;;;;;;164.00;107.97;;;21.20;92.10;;;;;;5052506;28;20053;-67
2023/07/09 05:28:03;;;;;;;67.65;43.90;;;21.30;92.30;;;;;;5052300;28;20064;-71
2023/07/09 05:30:28;;;;;;;95.47;55.28;;;21.30;92.20;;;;;;5052339;28;20116;-69
2023/07/09 05:32:57;;;;;;;12.27;7.85;;;21.40;92.10;;;;;;5052197;28;20117;-70
2023/07/09 05:35:25;;;;;;;7.78;4.90;;;21.40;92.30;;;;;;5052169;28;20067;-69
2023/07/09 05:37:52;;;;;;;12.30;4.97;;;21.50;92.30;;;;;;5047946;28;20033;-70
2023/07/09 05:40:17;;;;;;;10.05;4.80;;;21.50;91.90;;;;;;5052914;28;20128;-69
2023/07/09 05:42:43;;;;;;;8.30;4.90;;;21.60;91.90;;;;;;5053289;28;20116;-69
2023/07/09 05:45:11;;;;;;;77.85;49.45;;;21.60;91.80;;;;;;5053113;28;20032;-71
2023/07/09 05:47:36;;;;;;;47.90;29.60;;;21.70;91.90;;;;;;5052978;28;20033;-69
2023/07/09 05:50:03;;;;;;;46.70;29.48;;;21.70;91.90;;;;;;5053238;28;20036;-69
2023/07/09 05:52:29;;;;;;;15.73;7.38;;;21.80;91.80;;;;;;5051777;28;20087;-71
2023/07/09 05:54:55;;;;;;;11.65;5.45;;;21.80;91.60;;;;;;5052891;28;20029;-72
2023/07/09 05:57:21;;;;;;;11.32;5.35;;;22.00;91.40;;;;;;5052717;28;20213;-72
2023/07/09 05:59:47;;;;;;;15.43;6.05;;;22.00;91.30;;;;;;5052530;28;20033;-70
2023/07/09 06:02:14;;;;;;;14.23;5.55;;;22.10;91.30;;;;;;5053091;28;20029;-72
2023/07/09 06:04:41;;;;;;;8.35;5.30;;;22.10;91.40;;;;;;5052598;28;20108;-71
2023/07/09 06:07:08;;;;;;;11.98;5.25;;;22.20;91.40;;;;;;5052092;28;20036;-69
2023/07/09 06:09:34;;;;;;;12.40;5.50;;;22.20;91.30;;;;;;5052603;28;20082;-70
2023/07/09 06:12:01;;;;;;;12.27;5.85;;;22.30;91.30;;;;;;5052385;28;20052;-71
2023/07/09 06:14:26;;;;;;;20.55;9.82;;;22.40;91.30;;;;;;5052352;28;20027;-70
2023/07/09 06:16:52;;;;;;;13.75;6.35;;;22.40;91.10;;;;;;5052867;28;20394;-71
2023/07/09 06:19:18;;;;;;;9.07;4.95;;;22.50;91.00;;;;;;5052585;28;20040;-71
2023/07/09 06:21:43;;;;;;;10.38;5.65;;;22.60;91.00;;;;;;5051939;28;20033;-71
2023/07/09 06:24:09;;;;;;;11.02;5.07;;;22.60;91.00;;;;;;5052190;28;20041;-72
2023/07/09 06:26:35;;;;;;;10.82;5.20;;;22.60;91.10;;;;;;5050989;28;20076;-70
2023/07/09 06:29:01;;;;;;;9.10;5.22;;;22.60;91.00;;;;;;5051557;28;20183;-71
2023/07/09 06:31:26;;;;;;;85.15;53.25;;;22.70;90.90;;;;;;5052347;28;20034;-67
2023/07/09 06:33:52;;;;;;;149.88;89.20;;;22.90;90.80;;;;;;5051646;28;20059;-67
2023/07/09 06:36:19;;;;;;;28.02;16.48;;;23.00;90.80;;;;;;5051086;28;20029;-68
2023/07/09 06:38:44;;;;;;;11.35;5.50;;;23.10;90.50;;;;;;5050032;28;20037;-68
2023/07/09 06:41:11;;;;;;;7.72;4.72;;;23.20;90.50;;;;;;5050825;28;20100;-67
2023/07/09 06:43:38;;;;;;;8.55;5.22;;;23.30;90.60;;;;;;5050423;28;20056;-67
2023/07/09 06:46:05;;;;;;;12.77;5.78;;;23.40;90.20;;;;;;5050620;28;20026;-66
2023/07/09 06:48:31;;;;;;;11.75;5.57;;;23.40;89.80;;;;;;5049593;28;20068;-71
2023/07/09 06:50:58;;;;;;;11.55;5.45;;;23.50;90.10;;;;;;5049957;28;20470;-70
2023/07/09 06:53:25;;;;;;;10.52;5.05;;;23.60;90.20;;;;;;5050920;28;20116;-69
2023/07/09 06:55:52;;;;;;;8.35;4.88;;;23.70;90.40;;;;;;5051213;28;20025;-68
2023/07/09 06:58:19;;;;;;;8.90;4.85;;;23.80;89.60;;;;;;5050403;28;20123;-72
2023/07/09 07:00:45;;;;;;;8.60;4.72;;;23.80;89.60;;;;;;5050512;28;20501;-79
2023/07/09 07:03:11;;;;;;;117.97;76.60;;;23.90;89.70;;;;;;5050261;28;20032;-65
2023/07/09 07:05:37;;;;;;;141.25;85.90;;;24.10;90.00;;;;;;5050172;28;20035;-68
2023/07/09 07:08:03;;;;;;;19.42;10.98;;;24.40;90.30;;;;;;5050369;28;20036;-69
2023/07/09 07:10:29;;;;;;;11.57;5.50;;;24.50;89.30;;;;;;5036083;28;20021;-69
2023/07/09 07:12:55;;;;;;;10.30;5.10;;;24.60;89.10;;;;;;5030177;28;20030;-70
2023/07/09 07:15:21;;;;;;;10.52;4.97;;;24.60;89.10;;;;;;5029982;28;20069;-69
2023/07/09 07:17:47;;;;;;;9.15;5.60;;;24.60;89.00;;;;;;5030144;28;20030;-70
2023/07/09 07:20:15;;;;;;;9.18;5.20;;;24.60;89.30;;;;;;5030506;28;20083;-73
2023/07/09 07:22:41;;;;;;;14.32;5.22;;;24.80;88.40;;;;;;5030199;28;20541;-70
2023/07/09 07:25:07;;;;;;;11.23;5.63;;;24.90;88.50;;;;;;5030274;28;20034;-72
2023/07/09 07:27:33;;;;;;;9.82;5.20;;;24.90;88.60;;;;;;5029941;28;20464;-72
2023/07/09 07:30:00;;;;;;;7.70;4.93;;;25.00;88.50;;;;;;5030104;28;20083;-72
2023/07/09 07:32:25;;;;;;;12.85;5.50;;;25.00;88.10;;;;;;5030011;28;20091;-73
2023/07/09 07:34:51;;;;;;;10.80;4.88;;;25.10;88.20;;;;;;5045865;28;20057;-72
2023/07/09 07:37:21;;;;;;;8.88;5.25;;;25.10;88.50;;;;;;5029969;28;20536;-73
2023/07/09 07:39:48;;;;;;;7.13;4.63;;;25.20;88.20;;;;;;5029934;28;20440;-72
2023/07/09 07:42:14;;;;;;;16.40;5.90;;;25.20;88.20;;;;;;5030040;28;20076;-71
2023/07/09 07:44:39;;;;;;;8.30;5.25;;;25.30;88.20;;;;;;5045322;28;20051;-71
2023/07/09 07:47:06;;;;;;;9.88;5.00;;;25.30;87.50;;;;;;5030344;28;20435;-72
2023/07/09 07:49:32;;;;;;;10.40;4.80;;;25.50;88.00;;;;;;5045514;28;20033;-72
2023/07/09 07:51:57;;;;;;;8.75;5.20;;;25.60;87.50;;;;;;5030373;28;20035;-72
2023/07/09 07:54:23;;;;;;;8.63;4.50;;;25.60;87.90;;;;;;5030886;28;20460;-71
2023/07/09 07:56:49;;;;;;;7.28;4.90;;;26.00;87.50;;;;;;5029841;28;20041;-72
2023/07/09 07:59:17;;;;;;;11.70;5.50;;;26.20;86.80;;;;;;5030230;28;20025;-71
2023/07/09 08:01:42;;;;;;;11.13;5.65;;;26.50;86.20;;;;;;5030551;28;20464;-71
2023/07/09 08:04:08;;;;;;;10.30;5.22;;;26.70;84.90;;;;;;5034190;28;20044;-72
2023/07/09 08:06:33;;;;;;;11.52;5.47;;;26.80;84.40;;;;;;5034019;28;20034;-72
2023/07/09 08:08:59;;;;;;;16.23;7.05;;;27.00;83.10;;;;;;5032588;28;20036;-72
2023/07/09 08:11:27;;;;;;;14.68;5.72;;;27.10;82.40;;;;;;5033756;28;20025;-72
2023/07/09 08:13:53;;;;;;;12.05;5.20;;;27.10;82.40;;;;;;5049888;28;20063;-73
2023/07/09 08:16:19;;;;;;;15.07;6.97;;;27.20;81.80;;;;;;5033891;28;20045;-74
2023/07/09 08:18:44;;;;;;;12.30;5.55;;;27.20;81.50;;;;;;5032886;28;20044;-71
2023/07/09 08:21:10;;;;;;;11.35;5.85;;;27.40;81.60;;;;;;5033911;28;20112;-71
2023/07/09 08:23:36;;;;;;;12.20;5.22;;;27.50;80.50;;;;;;5033949;28;20466;-71
2023/07/09 08:26:03;;;;;;;8.80;5.30;;;27.60;79.50;;;;;;5035046;28;20065;-73
2023/07/09 08:28:30;;;;;;;7.25;5.07;;;27.70;80.30;;;;;;5033981;28;20029;-73
2023/07/09 08:30:56;;;;;;;27.07;7.23;;;27.90;78.30;;;;;;5035333;28;20040;-73
2023/07/09 08:33:23;;;;;;;11.35;5.30;;;28.10;78.00;;;;;;5049623;28;20045;-72
2023/07/09 08:35:50;;;;;;;11.68;5.30;;;28.40;76.80;;;;;;5034539;28;20040;-72
2023/07/09 08:38:16;;;;;;;9.30;5.38;;;28.80;78.90;;;;;;5036272;28;20029;-73
2023/07/09 08:40:54;;;;;;;8.93;5.33;;;29.30;76.80;;;;;;5038969;28;20065;-72
2023/07/09 08:43:49;;;;;;;9.57;4.93;;;30.10;75.20;;;;;;5034816;28;20040;-71
2023/07/09 08:46:55;;;;;;;13.02;5.70;;;31.30;75.80;;;;;;5035173;28;20474;-72
2023/07/09 08:49:30;;;;;;;10.07;5.28;;;32.20;74.20;;;;;;5054515;28;20041;-71
2023/07/09 08:51:57;;;;;;;12.35;5.70;;;33.40;67.60;;;;;;5053929;28;20033;-73
2023/07/09 08:54:29;;;;;;;11.32;6.13;;;33.70;65.80;;;;;;5053813;28;20032;-73
2023/07/09 08:57:17;;;;;;;10.57;5.10;;;34.00;64.20;;;;;;5052649;28;20362;-73
2023/07/09 08:59:43;;;;;;;8.20;4.97;;;34.00;64.30;;;;;;5053909;28;20179;-72
2023/07/09 09:02:26;;;;;;;14.13;5.38;;;34.50;61.70;;;;;;5053992;28;20036;-72
2023/07/09 09:04:52;;;;;;;10.20;6.35;;;35.00;59.90;;;;;;5052613;28;20045;-75
2023/07/09 09:07:29;;;;;;;10.73;4.93;;;35.10;58.80;;;;;;5053388;28;20048;-72
2023/07/09 09:10:02;;;;;;;9.55;4.85;;;35.10;58.80;;;;;;5053426;28;20029;-74
2023/07/09 09:12:38;;;;;;;7.05;4.68;;;35.40;59.30;;;;;;5053576;28;20025;-71
2023/07/09 09:15:13;;;;;;;10.98;5.10;;;35.30;57.50;;;;;;5051546;28;20097;-75
2023/07/09 09:17:40;;;;;;;10.57;5.05;;;35.70;56.70;;;;;;5053080;28;20032;-73
2023/07/09 09:20:11;;;;;;;12.73;5.93;;;35.80;55.60;;;;;;5053691;28;20028;-72
2023/07/09 09:22:52;;;;;;;8.20;5.35;;;35.20;56.30;;;;;;5053035;28;20040;-72
2023/07/09 09:25:27;;;;;;;7.25;5.30;;;35.10;56.00;;;;;;5053051;28;20074;-75
2023/07/09 09:27:52;;;;;;;9.73;5.18;;;35.00;55.40;;;;;;5052549;28;20379;-72
2023/07/09 09:30:23;;;;;;;7.78;4.43;;;35.50;56.30;;;;;;5052832;28;20153;-70
2023/07/09 09:32:59;;;;;;;8.25;5.07;;;34.80;55.20;;;;;;5052915;28;20029;-72
2023/07/09 09:35:36;;;;;;;7.88;4.40;;;34.30;56.40;;;;;;5051879;28;20033;-72
2023/07/09 09:38:09;;;;;;;8.60;4.65;;;34.00;57.10;;;;;;5053386;28;20490;-70
2023/07/09 09:40:35;;;;;;;7.00;4.85;;;34.30;56.80;;;;;;5053034;28;20041;-72
2023/07/09 09:43:02;;;;;;;6.20;4.72;;;34.30;56.30;;;;;;5053056;28;20093;-74
2023/07/09 09:45:39;;;;;;;6.25;4.57;;;33.90;56.20;;;;;;5052586;28;20453;-72
2023/07/09 09:48:18;;;;;;;14.65;4.90;;;33.80;56.90;;;;;;5052554;28;20371;-71
2023/07/09 09:50:46;;;;;;;7.95;4.90;;;33.90;56.90;;;;;;5051266;28;20049;-73
2023/07/09 09:53:17;;;;;;;;;;;33.70;57.10;;;;;;5053822;28;20036;-72
2023/07/09 09:55:45;;;;;;;8.10;4.25;;;33.80;56.60;;;;;;5052591;28;19920;-70
2023/07/09 09:58:14;;;;;;;6.68;4.40;;;33.50;56.10;;;;;;5051559;28;20367;-73
2023/07/09 10:00:40;;;;;;;9.23;4.85;;;33.40;56.90;;;;;;5052179;28;20475;-69
2023/07/09 10:03:06;;;;;;;6.53;4.47;;;33.50;57.30;;;;;;5052252;28;20025;-72
2023/07/09 10:05:48;;;;;;;11.60;4.85;;;33.00;57.10;;;;;;5052343;28;20025;-73
2023/07/09 10:08:52;;;;;;;7.10;4.90;;;33.30;57.30;;;;;;5053236;28;20021;-72
2023/07/09 10:11:27;;;;;;;6.70;4.90;;;33.20;56.50;;;;;;5048394;28;20053;-71
2023/07/09 10:13:58;;;;;;;9.07;5.00;;;33.10;56.40;;;;;;5052576;28;20031;-72
2023/07/09 10:16:58;;;;;;;7.53;4.93;;;32.80;56.50;;;;;;5051831;28;20039;-73
2023/07/09 10:19:57;;;;;;;6.90;4.32;;;32.90;56.80;;;;;;5044710;28;20462;-71
2023/07/09 10:22:28;;;;;;;7.15;4.75;;;32.80;56.60;;;;;;5052473;28;20029;-73
2023/07/09 10:25:02;;;;;;;8.77;4.90;;;32.90;56.30;;;;;;5051374;28;20363;-73
2023/07/09 10:28:01;;;;;;;12.65;5.47;;;32.90;55.80;;;;;;5051550;28;20455;-70
2023/07/09 10:31:11;;;;;;;8.93;4.88;;;32.90;55.90;;;;;;5051665;28;20021;-73
2023/07/09 10:33:48;;;;;;;7.68;4.80;;;32.90;55.20;;;;;;5050931;28;20056;-71
2023/07/09 10:36:46;;;;;;;8.23;4.93;;;32.90;55.10;;;;;;5051853;28;20036;-70
2023/07/09 10:39:17;;;;;;;;;;;33.00;55.30;;;;;;5052380;28;20044;-72
2023/07/09 10:41:45;;;;;;;9.48;4.72;;;33.10;55.40;;;;;;5051737;28;19908;-72
2023/07/09 10:44:20;;;;;;;8.85;4.93;;;33.00;54.70;;;;;;5052476;28;20033;-76
2023/07/09 10:46:50;;;;;;;8.52;5.05;;;33.10;54.80;;;;;;5051959;28;20478;-72
2023/07/09 10:49:17;;;;;;;8.98;5.15;;;32.90;55.50;;;;;;5051648;28;20348;-72
2023/07/09 10:51:51;;;;;;;;;;;33.00;55.60;;;;;;5051927;28;20036;-70
2023/07/09 10:54:49;;;;;;;11.48;5.40;;;32.90;55.10;;;;;;5051445;28;20460;-73
2023/07/09 10:57:24;;;;;;;7.63;4.97;;;33.00;55.90;;;;;;5051517;28;20033;-72
2023/07/09 10:59:50;;;;;;;6.90;4.68;;;32.90;55.10;;;;;;5051167;28;20055;-71
2023/07/09 11:02:24;;;;;;;11.73;4.63;;;33.10;55.00;;;;;;5051889;28;20454;-71
2023/07/09 11:05:00;;;;;;;10.60;4.88;;;33.10;54.80;;;;;;5051705;28;20040;-72
2023/07/09 11:07:49;;;;;;;5.80;4.43;;;33.10;54.70;;;;;;5051468;28;20438;-72
2023/07/09 11:10:27;;;;;;;6.93;4.75;;;33.10;53.70;;;;;;5051533;28;20032;-72
2023/07/09 11:13:15;;;;;;;7.93;4.47;;;33.30;53.50;;;;;;5051257;28;20359;-71
2023/07/09 11:15:45;;;;;;;6.45;4.45;;;33.10;54.10;;;;;;5051068;28;20435;-72
2023/07/09 11:18:22;;;;;;;8.73;4.50;;;33.10;53.90;;;;;;5051211;28;20467;-71
2023/07/09 11:21:06;;;;;;;7.03;4.68;;;33.20;54.00;;;;;;5051151;28;20045;-72
2023/07/09 11:24:02;;;;;;;6.22;4.70;;;33.10;54.70;;;;;;5050067;28;20021;-72
2023/07/09 11:26:27;;;;;;;10.30;4.73;;;33.30;55.00;;;;;;5048956;28;20106;-70
2023/07/09 11:29:07;;;;;;;9.15;4.47;;;33.30;55.30;;;;;;5051460;28;20025;-70
2023/07/09 11:31:41;;;;;;;6.80;4.32;;;33.30;55.80;;;;;;5049838;28;20041;-71
2023/07/09 11:34:07;;;;;;;6.65;4.85;;;33.30;55.20;;;;;;5050797;28;20509;-72
2023/07/09 11:36:34;;;;;;;8.68;4.40;;;33.30;54.90;;;;;;5050840;28;20029;-70
2023/07/09 11:39:01;;;;;;;9.30;5.28;;;33.30;56.20;;;;;;5051035;28;20032;-71
2023/07/09 11:41:27;;;;;;;8.50;4.50;;;33.40;56.00;;;;;;5050867;28;20454;-72
2023/07/09 11:44:21;;;;;;;5.28;4.20;;;33.40;55.50;;;;;;5051336;28;20033;-72
2023/07/09 11:46:53;;;;;;;6.85;4.53;;;33.30;55.10;;;;;;5051244;28;20097;-71
2023/07/09 11:49:23;;;;;;;7.88;4.60;;;33.50;54.40;;;;;;5050976;28;20367;-70
2023/07/09 11:51:55;;;;;;;8.15;4.63;;;33.40;54.80;;;;;;5051066;28;20048;-71
2023/07/09 11:54:20;;;;;;;9.88;5.88;;;33.40;55.10;;;;;;5051176;28;20029;-73
2023/07/09 11:56:57;;;;;;;8.18;5.30;;;33.40;56.10;;;;;;5051380;28;20413;-72
2023/07/09 11:59:23;;;;;;;6.63;4.40;;;33.30;56.20;;;;;;5050634;28;20025;-72
2023/07/09 12:01:52;;;;;;;9.07;4.95;;;33.30;56.50;;;;;;5051442;28;20469;-72
2023/07/09 12:04:21;;;;;;;7.25;4.57;;;33.40;56.70;;;;;;5051084;28;20351;-72
2023/07/09 12:06:47;;;;;;;8.60;5.25;;;33.40;56.60;;;;;;5050695;28;20039;-73
2023/07/09 12:09:20;;;;;;;6.53;4.35;;;33.50;56.60;;;;;;5049663;28;20025;-73
2023/07/09 12:11:48;;;;;;;9.02;5.18;;;33.60;56.30;;;;;;5050696;28;20030;-74
2023/07/09 12:14:20;;;;;;;11.80;4.95;;;33.70;56.20;;;;;;5050917;28;20028;-73
2023/07/09 12:16:49;;;;;;;8.98;5.40;;;33.70;55.90;;;;;;5050584;28;20071;-71
2023/07/09 12:19:17;;;;;;;9.23;4.93;;;33.70;56.10;;;;;;5049745;28;20029;-71
2023/07/09 12:21:46;;;;;;;7.15;5.03;;;33.70;56.50;;;;;;5048146;28;20112;-71
2023/07/09 12:24:39;;;;;;;10.82;5.07;;;33.60;55.60;;;;;;5049328;28;20056;-71
2023/07/09 12:27:20;;;;;;;8.57;5.30;;;33.50;56.00;;;;;;5049051;28;20071;-70
2023/07/09 12:29:45;;;;;;;8.13;5.40;;;33.50;55.90;;;;;;5049391;28;20056;-71
2023/07/09 12:32:16;;;;;;;10.73;5.28;;;33.40;55.40;;;;;;5050031;28;20407;-70
2023/07/09 12:34:47;;;;;;;9.65;4.88;;;33.40;55.20;;;;;;5049144;28;20045;-72
2023/07/09 12:37:15;;;;;;;5.85;4.68;;;33.40;55.20;;;;;;5049181;28;20471;-71
2023/07/09 12:39:41;;;;;;;8.68;5.57;;;33.30;54.20;;;;;;5049428;28;20068;-72
2023/07/09 12:42:17;;;;;;;9.15;5.05;;;33.40;55.00;;;;;;5049424;28;20123;-71
2023/07/09 12:44:42;;;;;;;13.70;4.90;;;33.40;55.00;;;;;;5049069;28;20044;-71
2023/07/09 12:47:23;;;;;;;6.95;5.35;;;33.30;55.40;;;;;;5049627;28;20029;-71
2023/07/09 12:49:51;;;;;;;8.73;5.13;;;33.40;55.60;;;;;;5051658;28;20059;-70
2023/07/09 12:52:24;;;;;;;10.65;4.78;;;33.30;55.90;;;;;;5052965;28;20449;-70
2023/07/09 12:55:01;;;;;;;7.95;4.78;;;33.30;56.10;;;;;;5051679;28;20057;-71